Terminal Aerodrome Forecast
Issued by NWS Upton, NY

Home | Current Version | Previous Version | Text Only | Print | Product List | Glossary On
Versions: 1 2 3 4 5 6 7 8 9 10 11 12 13 14 15 16 17 18 19 20 21 22 23 24 25 26 27 28 29 30 31 32 33 34
000
FTUS41 KOKX 270456 AAC
TAFLGA
TAF AMD
KLGA 270456Z 2705/2724 VRB02KT 1SM BR OVC010
     FM270700 VRB02KT 1 1/2SM BR OVC009
     FM270900 VRB02KT 1SM BR OVC006
     FM271000 VRB03KT 3/4SM BR OVC003
     FM271300 VRB03KT 2SM BR BKN003 OVC008
     FM271500 12007KT P6SM FEW008 SCT012 BKN030
     FM271900 14010KT P6SM SCT012 BKN030=

USA.gov is the U.S. government's official web portal to all federal, state and local government web resources and services.